Terminal Aerodrome Forecast
Issued by NWS Wilmington, NC

Home | Current Version | Previous Version | Text Only | Print | Product List | Glossary On
Versions: 1 2 3 4 5 6 7 8 9 10 11 12 13 14 15 16 17 18 19
000
FTUS42 KILM 030523
TAFILM
TAF
KILM 030523Z 0306/0406 24011KT P6SM -SHRA SCT020 SCT040 SCT120
     FM030800 23007KT P6SM VCSH SCT060 SCT080 BKN200
     FM031300 26009KT P6SM SCT045 SCT120
     FM031700 21018G25KT P6SM VCTS SCT030CB BKN120
     FM040200 21011G20KT P6SM VCSH SCT050 SCT250=

USA.gov is the U.S. government's official web portal to all federal, state and local government web resources and services.